CYCY

Clyde River Airport

Clyde River, Canada
METAR CYCY 152200Z 12010KT 20SM FEW038 FEW060 BKN130 BKN260 08/06 A2965 RMK CF1SC1AC6CI1 CF TR CI TR SLP045
Observed Flight Rules
Aug-15 @ 22:00 UTC (27 minutes ago) Visual Flight Rules
Wind Visibility Clouds
120° at 10 knots 20 miles
  • Few at 3,800' AGL
  • Few at 6,000' AGL
  • Broken at 13,000' AGL
  • Broken at 26,000' AGL
Temperatures Readings
Current 8°C / 46°F
Dewpoint 6°C / 43°F
Humidity 87%
Altimeter 29.65" Hg
Pressure 1004.5 hPa
Elevation 26
METAR CYCY 152200Z 12010KT 20SM FEW038 FEW060 BKN130 BKN260 08/06 A2965 RMK CF1SC1AC6CI1 CF TR CI TR SLP045
Observed Flight Rules
Aug-15 @ 22:00 UTC
(27 minutes ago)
VFR
Wind Visibility
120° at 10 knots 20 miles
Clouds
  • Few at 3,800' AGL
  • Few at 6,000' AGL
  • Broken at 13,000' AGL
  • Broken at 26,000' AGL
Temperature Dewpoint
8°C / 46°F 6°C / 43°F
Humidity Altimeter Pressure
87% 29.65" Hg 1004.5 hPa